sensor_id;sensor_type;location;lat;lon;timestamp;P1;durP1;ratioP1;P2;durP2;ratioP2
12052;SDS011;6087;48.982;12.064;2023-04-20T00:01:28;5.87;;;4.50;;
12052;SDS011;6087;48.982;12.064;2023-04-20T00:03:56;5.73;;;4.53;;
12052;SDS011;6087;48.982;12.064;2023-04-20T00:06:23;5.37;;;4.13;;
12052;SDS011;6087;48.982;12.064;2023-04-20T00:08:53;7.77;;;4.20;;
12052;SDS011;6087;48.982;12.064;2023-04-20T00:11:20;6.27;;;4.60;;
12052;SDS011;6087;48.982;12.064;2023-04-20T00:13:47;5.87;;;4.13;;
12052;SDS011;6087;48.982;12.064;2023-04-20T00:16:14;5.30;;;4.80;;
12052;SDS011;6087;48.982;12.064;2023-04-20T00:18:49;4.40;;;4.00;;
12052;SDS011;6087;48.982;12.064;2023-04-20T00:21:16;5.93;;;4.73;;
12052;SDS011;6087;48.982;12.064;2023-04-20T00:23:46;5.83;;;4.57;;
12052;SDS011;6087;48.982;12.064;2023-04-20T00:26:13;6.93;;;4.53;;
12052;SDS011;6087;48.982;12.064;2023-04-20T00:28:41;5.43;;;4.10;;
12052;SDS011;6087;48.982;12.064;2023-04-20T00:31:07;5.80;;;4.00;;
12052;SDS011;6087;48.982;12.064;2023-04-20T00:33:34;5.47;;;4.17;;
12052;SDS011;6087;48.982;12.064;2023-04-20T00:36:03;4.87;;;4.37;;
12052;SDS011;6087;48.982;12.064;2023-04-20T00:38:30;5.40;;;4.20;;
12052;SDS011;6087;48.982;12.064;2023-04-20T00:40:57;5.23;;;4.53;;
12052;SDS011;6087;48.982;12.064;2023-04-20T00:43:24;6.90;;;4.60;;
12052;SDS011;6087;48.982;12.064;2023-04-20T00:45:51;6.97;;;4.63;;
12052;SDS011;6087;48.982;12.064;2023-04-20T00:48:21;4.83;;;4.30;;
12052;SDS011;6087;48.982;12.064;2023-04-20T00:50:48;5.83;;;4.33;;
12052;SDS011;6087;48.982;12.064;2023-04-20T00:53:17;4.40;;;4.00;;
12052;SDS011;6087;48.982;12.064;2023-04-20T00:55:46;4.47;;;3.90;;
12052;SDS011;6087;48.982;12.064;2023-04-20T00:58:14;4.60;;;3.83;;
12052;SDS011;6087;48.982;12.064;2023-04-20T01:00:41;5.60;;;4.83;;
12052;SDS011;6087;48.982;12.064;2023-04-20T01:03:08;5.07;;;4.27;;
12052;SDS011;6087;48.982;12.064;2023-04-20T01:05:35;6.67;;;4.33;;
12052;SDS011;6087;48.982;12.064;2023-04-20T01:08:02;4.97;;;4.50;;
12052;SDS011;6087;48.982;12.064;2023-04-20T01:10:31;4.20;;;3.80;;
12052;SDS011;6087;48.982;12.064;2023-04-20T01:12:58;5.53;;;5.03;;
12052;SDS011;6087;48.982;12.064;2023-04-20T01:15:25;4.67;;;4.20;;
12052;SDS011;6087;48.982;12.064;2023-04-20T01:17:52;6.67;;;4.43;;
12052;SDS011;6087;48.982;12.064;2023-04-20T01:20:25;6.57;;;4.73;;
12052;SDS011;6087;48.982;12.064;2023-04-20T01:22:53;5.30;;;4.40;;
12052;SDS011;6087;48.982;12.064;2023-04-20T01:25:22;5.00;;;4.50;;
12052;SDS011;6087;48.982;12.064;2023-04-20T01:27:49;5.37;;;4.83;;
12052;SDS011;6087;48.982;12.064;2023-04-20T01:30:16;6.37;;;4.63;;
12052;SDS011;6087;48.982;12.064;2023-04-20T01:32:43;5.07;;;4.57;;
12052;SDS011;6087;48.982;12.064;2023-04-20T01:35:10;5.30;;;4.80;;
12052;SDS011;6087;48.982;12.064;2023-04-20T01:37:37;6.90;;;5.03;;
12052;SDS011;6087;48.982;12.064;2023-04-20T01:40:07;5.07;;;4.57;;
12052;SDS011;6087;48.982;12.064;2023-04-20T01:42:35;8.37;;;4.40;;
12052;SDS011;6087;48.982;12.064;2023-04-20T01:45:03;5.97;;;5.00;;
12052;SDS011;6087;48.982;12.064;2023-04-20T01:47:30;6.17;;;5.10;;
12052;SDS011;6087;48.982;12.064;2023-04-20T01:49:58;6.43;;;4.60;;
12052;SDS011;6087;48.982;12.064;2023-04-20T01:52:25;11.57;;;6.17;;
12052;SDS011;6087;48.982;12.064;2023-04-20T01:54:52;5.50;;;4.93;;
12052;SDS011;6087;48.982;12.064;2023-04-20T01:57:20;5.47;;;4.97;;
12052;SDS011;6087;48.982;12.064;2023-04-20T01:59:53;7.93;;;5.00;;
12052;SDS011;6087;48.982;12.064;2023-04-20T02:02:20;7.67;;;5.30;;
12052;SDS011;6087;48.982;12.064;2023-04-20T02:04:47;5.57;;;5.07;;
12052;SDS011;6087;48.982;12.064;2023-04-20T02:07:14;7.03;;;5.20;;
12052;SDS011;6087;48.982;12.064;2023-04-20T02:09:41;5.70;;;5.00;;
12052;SDS011;6087;48.982;12.064;2023-04-20T02:12:08;6.93;;;5.17;;
12052;SDS011;6087;48.982;12.064;2023-04-20T02:14:36;6.67;;;5.87;;
12052;SDS011;6087;48.982;12.064;2023-04-20T02:17:03;6.10;;;5.23;;
12052;SDS011;6087;48.982;12.064;2023-04-20T02:19:31;6.00;;;5.13;;
12052;SDS011;6087;48.982;12.064;2023-04-20T02:21:58;6.33;;;5.70;;
12052;SDS011;6087;48.982;12.064;2023-04-20T02:24:25;6.13;;;5.37;;
12052;SDS011;6087;48.982;12.064;2023-04-20T02:26:52;6.23;;;4.97;;
12052;SDS011;6087;48.982;12.064;2023-04-20T02:29:19;7.90;;;5.60;;
12052;SDS011;6087;48.982;12.064;2023-04-20T02:31:47;6.50;;;5.10;;
12052;SDS011;6087;48.982;12.064;2023-04-20T02:34:14;5.77;;;4.93;;
12052;SDS011;6087;48.982;12.064;2023-04-20T02:36:41;7.70;;;5.03;;
12052;SDS011;6087;48.982;12.064;2023-04-20T02:39:08;6.20;;;5.37;;
12052;SDS011;6087;48.982;12.064;2023-04-20T02:41:35;6.57;;;5.13;;
12052;SDS011;6087;48.982;12.064;2023-04-20T02:44:02;5.97;;;5.33;;
12052;SDS011;6087;48.982;12.064;2023-04-20T02:46:32;8.20;;;5.97;;
12052;SDS011;6087;48.982;12.064;2023-04-20T02:49:01;7.43;;;5.97;;
12052;SDS011;6087;48.982;12.064;2023-04-20T02:51:28;8.97;;;5.73;;
12052;SDS011;6087;48.982;12.064;2023-04-20T02:53:55;11.83;;;6.93;;
12052;SDS011;6087;48.982;12.064;2023-04-20T02:56:22;6.30;;;5.70;;
12052;SDS011;6087;48.982;12.064;2023-04-20T02:58:55;7.73;;;5.93;;
12052;SDS011;6087;48.982;12.064;2023-04-20T03:01:22;10.70;;;6.33;;
12052;SDS011;6087;48.982;12.064;2023-04-20T03:03:49;8.93;;;5.80;;
12052;SDS011;6087;48.982;12.064;2023-04-20T03:06:18;12.13;;;5.93;;
12052;SDS011;6087;48.982;12.064;2023-04-20T03:08:45;8.23;;;6.07;;
12052;SDS011;6087;48.982;12.064;2023-04-20T03:11:12;8.87;;;5.90;;
12052;SDS011;6087;48.982;12.064;2023-04-20T03:13:39;6.83;;;5.73;;
12052;SDS011;6087;48.982;12.064;2023-04-20T03:16:06;6.77;;;5.50;;
12052;SDS011;6087;48.982;12.064;2023-04-20T03:18:33;8.67;;;5.50;;
12052;SDS011;6087;48.982;12.064;2023-04-20T03:21:00;7.50;;;6.43;;
12052;SDS011;6087;48.982;12.064;2023-04-20T03:23:31;8.60;;;6.53;;
12052;SDS011;6087;48.982;12.064;2023-04-20T03:25:58;7.63;;;6.17;;
12052;SDS011;6087;48.982;12.064;2023-04-20T03:28:25;6.23;;;5.53;;
12052;SDS011;6087;48.982;12.064;2023-04-20T03:30:52;7.40;;;6.50;;
12052;SDS011;6087;48.982;12.064;2023-04-20T03:33:19;7.53;;;6.13;;
12052;SDS011;6087;48.982;12.064;2023-04-20T03:35:46;7.10;;;5.90;;
12052;SDS011;6087;48.982;12.064;2023-04-20T03:38:13;7.33;;;6.43;;
12052;SDS011;6087;48.982;12.064;2023-04-20T03:40:41;12.20;;;6.63;;
12052;SDS011;6087;48.982;12.064;2023-04-20T03:43:08;10.83;;;8.27;;
12052;SDS011;6087;48.982;12.064;2023-04-20T03:45:36;10.63;;;7.67;;
12052;SDS011;6087;48.982;12.064;2023-04-20T03:48:03;9.80;;;7.50;;
12052;SDS011;6087;48.982;12.064;2023-04-20T03:50:30;9.00;;;6.60;;
12052;SDS011;6087;48.982;12.064;2023-04-20T03:52:57;10.40;;;6.77;;
12052;SDS011;6087;48.982;12.064;2023-04-20T03:55:24;9.40;;;7.20;;
12052;SDS011;6087;48.982;12.064;2023-04-20T03:57:52;7.90;;;6.33;;
12052;SDS011;6087;48.982;12.064;2023-04-20T04:00:20;7.73;;;6.57;;
12052;SDS011;6087;48.982;12.064;2023-04-20T04:02:46;7.40;;;6.57;;
12052;SDS011;6087;48.982;12.064;2023-04-20T04:05:13;8.87;;;7.03;;
12052;SDS011;6087;48.982;12.064;2023-04-20T04:07:40;15.00;;;7.80;;
12052;SDS011;6087;48.982;12.064;2023-04-20T04:10:08;8.17;;;7.33;;
12052;SDS011;6087;48.982;12.064;2023-04-20T04:12:35;8.17;;;7.07;;
12052;SDS011;6087;48.982;12.064;2023-04-20T04:15:04;11.07;;;7.53;;
12052;SDS011;6087;48.982;12.064;2023-04-20T04:17:32;9.83;;;7.37;;
12052;SDS011;6087;48.982;12.064;2023-04-20T04:19:59;8.77;;;7.57;;
12052;SDS011;6087;48.982;12.064;2023-04-20T04:22:25;8.03;;;7.20;;
12052;SDS011;6087;48.982;12.064;2023-04-20T04:24:52;7.83;;;6.70;;
12052;SDS011;6087;48.982;12.064;2023-04-20T04:27:19;10.67;;;6.70;;
12052;SDS011;6087;48.982;12.064;2023-04-20T04:29:47;10.40;;;7.40;;
12052;SDS011;6087;48.982;12.064;2023-04-20T04:32:16;6.97;;;6.13;;
12052;SDS011;6087;48.982;12.064;2023-04-20T04:34:46;6.57;;;5.97;;
12052;SDS011;6087;48.982;12.064;2023-04-20T04:37:17;9.73;;;7.07;;
12052;SDS011;6087;48.982;12.064;2023-04-20T04:39:47;9.20;;;6.93;;
12052;SDS011;6087;48.982;12.064;2023-04-20T04:42:15;7.80;;;6.67;;
12052;SDS011;6087;48.982;12.064;2023-04-20T04:44:42;7.07;;;6.37;;
12052;SDS011;6087;48.982;12.064;2023-04-20T04:47:09;7.27;;;6.57;;
12052;SDS011;6087;48.982;12.064;2023-04-20T04:49:39;9.43;;;6.57;;
12052;SDS011;6087;48.982;12.064;2023-04-20T04:52:07;10.40;;;7.97;;
12052;SDS011;6087;48.982;12.064;2023-04-20T04:54:34;9.80;;;7.23;;
12052;SDS011;6087;48.982;12.064;2023-04-20T04:57:00;8.00;;;6.80;;
12052;SDS011;6087;48.982;12.064;2023-04-20T04:59:27;8.50;;;6.97;;
12052;SDS011;6087;48.982;12.064;2023-04-20T05:01:54;8.20;;;7.23;;
12052;SDS011;6087;48.982;12.064;2023-04-20T05:04:21;8.20;;;6.87;;
12052;SDS011;6087;48.982;12.064;2023-04-20T05:06:50;10.07;;;6.33;;
12052;SDS011;6087;48.982;12.064;2023-04-20T05:09:17;9.60;;;7.53;;
12052;SDS011;6087;48.982;12.064;2023-04-20T05:11:43;8.67;;;7.27;;
12052;SDS011;6087;48.982;12.064;2023-04-20T05:14:10;10.97;;;7.70;;
12052;SDS011;6087;48.982;12.064;2023-04-20T05:16:37;10.23;;;7.37;;
12052;SDS011;6087;48.982;12.064;2023-04-20T05:19:04;7.40;;;6.70;;
12052;SDS011;6087;48.982;12.064;2023-04-20T05:21:31;11.37;;;7.47;;
12052;SDS011;6087;48.982;12.064;2023-04-20T05:23:59;7.90;;;6.87;;
12052;SDS011;6087;48.982;12.064;2023-04-20T05:26:26;9.20;;;7.33;;
12052;SDS011;6087;48.982;12.064;2023-04-20T05:28:53;9.90;;;7.27;;
12052;SDS011;6087;48.982;12.064;2023-04-20T05:31:20;11.33;;;7.57;;
12052;SDS011;6087;48.982;12.064;2023-04-20T05:33:50;8.63;;;7.33;;
12052;SDS011;6087;48.982;12.064;2023-04-20T05:36:17;8.00;;;7.00;;
12052;SDS011;6087;48.982;12.064;2023-04-20T05:38:44;12.40;;;8.47;;
12052;SDS011;6087;48.982;12.064;2023-04-20T05:41:13;8.20;;;6.77;;
12052;SDS011;6087;48.982;12.064;2023-04-20T05:43:39;8.80;;;7.27;;
12052;SDS011;6087;48.982;12.064;2023-04-20T05:46:06;9.27;;;7.33;;
12052;SDS011;6087;48.982;12.064;2023-04-20T05:48:33;10.57;;;7.70;;
12052;SDS011;6087;48.982;12.064;2023-04-20T05:51:00;9.57;;;7.97;;
12052;SDS011;6087;48.982;12.064;2023-04-20T05:53:27;12.87;;;7.63;;
12052;SDS011;6087;48.982;12.064;2023-04-20T05:55:54;8.43;;;7.60;;
12052;SDS011;6087;48.982;12.064;2023-04-20T05:58:22;10.23;;;7.60;;
12052;SDS011;6087;48.982;12.064;2023-04-20T06:00:49;8.67;;;7.77;;
12052;SDS011;6087;48.982;12.064;2023-04-20T06:03:16;9.93;;;7.47;;
12052;SDS011;6087;48.982;12.064;2023-04-20T06:05:43;9.50;;;7.77;;
12052;SDS011;6087;48.982;12.064;2023-04-20T06:08:10;15.13;;;8.53;;
12052;SDS011;6087;48.982;12.064;2023-04-20T06:10:37;9.10;;;8.10;;
12052;SDS011;6087;48.982;12.064;2023-04-20T06:13:05;8.87;;;7.93;;
12052;SDS011;6087;48.982;12.064;2023-04-20T06:15:33;10.73;;;7.80;;
12052;SDS011;6087;48.982;12.064;2023-04-20T06:21:22;11.83;;;9.07;;
12052;SDS011;6087;48.982;12.064;2023-04-20T06:23:51;9.93;;;9.00;;
12052;SDS011;6087;48.982;12.064;2023-04-20T06:26:18;10.73;;;8.53;;
12052;SDS011;6087;48.982;12.064;2023-04-20T06:28:44;10.27;;;7.67;;
12052;SDS011;6087;48.982;12.064;2023-04-20T06:31:13;10.17;;;7.87;;
12052;SDS011;6087;48.982;12.064;2023-04-20T06:33:40;10.77;;;8.30;;
12052;SDS011;6087;48.982;12.064;2023-04-20T06:36:07;10.60;;;8.67;;
12052;SDS011;6087;48.982;12.064;2023-04-20T06:38:34;10.93;;;8.53;;
12052;SDS011;6087;48.982;12.064;2023-04-20T06:41:01;11.17;;;8.33;;
12052;SDS011;6087;48.982;12.064;2023-04-20T06:43:28;13.50;;;7.63;;
12052;SDS011;6087;48.982;12.064;2023-04-20T06:45:56;10.10;;;8.20;;
12052;SDS011;6087;48.982;12.064;2023-04-20T06:48:24;11.77;;;7.57;;
12052;SDS011;6087;48.982;12.064;2023-04-20T06:50:52;13.50;;;8.40;;
12052;SDS011;6087;48.982;12.064;2023-04-20T06:53:18;20.57;;;8.10;;
12052;SDS011;6087;48.982;12.064;2023-04-20T06:55:45;9.90;;;7.33;;
12052;SDS011;6087;48.982;12.064;2023-04-20T06:58:12;8.73;;;7.13;;
12052;SDS011;6087;48.982;12.064;2023-04-20T07:00:39;11.53;;;8.20;;
12052;SDS011;6087;48.982;12.064;2023-04-20T07:03:06;7.73;;;6.90;;
12052;SDS011;6087;48.982;12.064;2023-04-20T07:05:36;8.90;;;7.13;;
12052;SDS011;6087;48.982;12.064;2023-04-20T07:08:03;9.97;;;8.23;;
12052;SDS011;6087;48.982;12.064;2023-04-20T07:10:30;8.80;;;7.30;;
12052;SDS011;6087;48.982;12.064;2023-04-20T07:12:57;11.70;;;8.07;;
12052;SDS011;6087;48.982;12.064;2023-04-20T07:15:24;10.03;;;8.03;;
12052;SDS011;6087;48.982;12.064;2023-04-20T07:17:51;10.13;;;7.67;;
12052;SDS011;6087;48.982;12.064;2023-04-20T07:20:18;8.30;;;7.23;;
12052;SDS011;6087;48.982;12.064;2023-04-20T07:22:48;8.40;;;7.37;;
12052;SDS011;6087;48.982;12.064;2023-04-20T07:25:15;8.37;;;7.33;;
12052;SDS011;6087;48.982;12.064;2023-04-20T07:27:42;9.33;;;6.80;;
12052;SDS011;6087;48.982;12.064;2023-04-20T07:30:09;8.53;;;7.20;;
12052;SDS011;6087;48.982;12.064;2023-04-20T07:32:37;9.60;;;6.90;;
12052;SDS011;6087;48.982;12.064;2023-04-20T07:35:05;7.20;;;6.50;;
12052;SDS011;6087;48.982;12.064;2023-04-20T07:37:32;7.87;;;7.03;;
12052;SDS011;6087;48.982;12.064;2023-04-20T07:40:01;7.67;;;6.33;;
12052;SDS011;6087;48.982;12.064;2023-04-20T07:42:30;9.30;;;6.57;;
12052;SDS011;6087;48.982;12.064;2023-04-20T07:44:58;7.23;;;6.07;;
12052;SDS011;6087;48.982;12.064;2023-04-20T07:47:25;8.93;;;6.27;;
12052;SDS011;6087;48.982;12.064;2023-04-20T07:49:52;9.43;;;6.20;;
12052;SDS011;6087;48.982;12.064;2023-04-20T07:52:19;9.27;;;6.23;;
12052;SDS011;6087;48.982;12.064;2023-04-20T07:54:46;7.27;;;5.60;;
12052;SDS011;6087;48.982;12.064;2023-04-20T07:57:14;10.00;;;6.10;;
12052;SDS011;6087;48.982;12.064;2023-04-20T07:59:44;7.07;;;5.87;;
12052;SDS011;6087;48.982;12.064;2023-04-20T08:02:11;8.17;;;6.07;;
12052;SDS011;6087;48.982;12.064;2023-04-20T08:04:44;7.67;;;6.17;;
12052;SDS011;6087;48.982;12.064;2023-04-20T08:07:12;7.33;;;5.80;;
12052;SDS011;6087;48.982;12.064;2023-04-20T08:09:39;10.10;;;5.30;;
12052;SDS011;6087;48.982;12.064;2023-04-20T08:12:06;8.20;;;5.83;;
12052;SDS011;6087;48.982;12.064;2023-04-20T08:14:35;7.77;;;5.47;;
12052;SDS011;6087;48.982;12.064;2023-04-20T08:17:05;9.30;;;6.63;;
12052;SDS011;6087;48.982;12.064;2023-04-20T08:19:38;8.43;;;6.63;;
12052;SDS011;6087;48.982;12.064;2023-04-20T08:22:05;8.03;;;7.03;;
12052;SDS011;6087;48.982;12.064;2023-04-20T08:24:32;12.10;;;7.63;;
12052;SDS011;6087;48.982;12.064;2023-04-20T08:26:59;11.43;;;7.90;;
12052;SDS011;6087;48.982;12.064;2023-04-20T08:29:25;11.37;;;7.70;;
12052;SDS011;6087;48.982;12.064;2023-04-20T08:31:54;8.97;;;7.23;;
12052;SDS011;6087;48.982;12.064;2023-04-20T08:34:21;9.03;;;7.27;;
12052;SDS011;6087;48.982;12.064;2023-04-20T08:36:48;10.40;;;7.53;;
12052;SDS011;6087;48.982;12.064;2023-04-20T08:39:19;9.43;;;7.63;;
12052;SDS011;6087;48.982;12.064;2023-04-20T08:41:48;10.20;;;7.53;;
12052;SDS011;6087;48.982;12.064;2023-04-20T08:44:17;8.90;;;7.50;;
12052;SDS011;6087;48.982;12.064;2023-04-20T08:46:45;12.70;;;7.17;;
12052;SDS011;6087;48.982;12.064;2023-04-20T08:49:15;11.77;;;8.37;;
12052;SDS011;6087;48.982;12.064;2023-04-20T08:51:43;10.60;;;8.30;;
12052;SDS011;6087;48.982;12.064;2023-04-20T08:54:11;12.10;;;8.47;;
12052;SDS011;6087;48.982;12.064;2023-04-20T08:56:39;11.00;;;8.10;;
12052;SDS011;6087;48.982;12.064;2023-04-20T08:59:07;12.53;;;8.90;;
12052;SDS011;6087;48.982;12.064;2023-04-20T09:01:35;12.00;;;9.23;;
12052;SDS011;6087;48.982;12.064;2023-04-20T09:04:14;13.60;;;9.33;;
12052;SDS011;6087;48.982;12.064;2023-04-20T09:06:43;10.07;;;8.40;;
12052;SDS011;6087;48.982;12.064;2023-04-20T09:09:10;14.00;;;8.83;;
12052;SDS011;6087;48.982;12.064;2023-04-20T09:11:37;11.37;;;9.17;;
12052;SDS011;6087;48.982;12.064;2023-04-20T09:14:04;9.90;;;8.70;;
12052;SDS011;6087;48.982;12.064;2023-04-20T09:16:34;11.10;;;9.00;;
12052;SDS011;6087;48.982;12.064;2023-04-20T09:19:03;14.67;;;10.07;;
12052;SDS011;6087;48.982;12.064;2023-04-20T09:21:32;12.87;;;9.40;;
12052;SDS011;6087;48.982;12.064;2023-04-20T09:23:59;10.20;;;8.40;;
12052;SDS011;6087;48.982;12.064;2023-04-20T09:26:30;12.70;;;9.10;;
12052;SDS011;6087;48.982;12.064;2023-04-20T09:28:58;10.43;;;8.07;;
12052;SDS011;6087;48.982;12.064;2023-04-20T09:31:25;13.03;;;9.37;;
12052;SDS011;6087;48.982;12.064;2023-04-20T09:33:55;10.67;;;9.07;;
12052;SDS011;6087;48.982;12.064;2023-04-20T09:36:38;10.77;;;8.43;;
12052;SDS011;6087;48.982;12.064;2023-04-20T09:39:07;11.97;;;8.50;;
12052;SDS011;6087;48.982;12.064;2023-04-20T09:41:34;9.80;;;8.13;;
12052;SDS011;6087;48.982;12.064;2023-04-20T09:44:02;11.43;;;8.03;;
12052;SDS011;6087;48.982;12.064;2023-04-20T09:46:29;12.07;;;7.97;;
12052;SDS011;6087;48.982;12.064;2023-04-20T09:48:58;10.10;;;8.07;;
12052;SDS011;6087;48.982;12.064;2023-04-20T09:51:26;9.67;;;7.60;;
12052;SDS011;6087;48.982;12.064;2023-04-20T09:53:56;11.30;;;8.33;;
12052;SDS011;6087;48.982;12.064;2023-04-20T09:56:24;10.77;;;7.43;;
12052;SDS011;6087;48.982;12.064;2023-04-20T09:58:52;9.33;;;7.50;;
12052;SDS011;6087;48.982;12.064;2023-04-20T10:01:19;9.83;;;7.50;;
12052;SDS011;6087;48.982;12.064;2023-04-20T10:03:47;8.73;;;7.30;;
12052;SDS011;6087;48.982;12.064;2023-04-20T10:06:19;8.83;;;7.13;;
12052;SDS011;6087;48.982;12.064;2023-04-20T10:08:47;9.77;;;7.87;;
12052;SDS011;6087;48.982;12.064;2023-04-20T10:11:28;9.10;;;7.53;;
12052;SDS011;6087;48.982;12.064;2023-04-20T10:13:57;8.83;;;6.50;;
12052;SDS011;6087;48.982;12.064;2023-04-20T10:16:24;8.60;;;7.63;;
12052;SDS011;6087;48.982;12.064;2023-04-20T10:18:55;9.43;;;7.00;;
12052;SDS011;6087;48.982;12.064;2023-04-20T10:21:26;8.03;;;6.70;;
12052;SDS011;6087;48.982;12.064;2023-04-20T10:23:54;7.37;;;6.23;;
12052;SDS011;6087;48.982;12.064;2023-04-20T10:26:23;8.07;;;6.17;;
12052;SDS011;6087;48.982;12.064;2023-04-20T10:29:03;8.27;;;7.33;;
12052;SDS011;6087;48.982;12.064;2023-04-20T10:31:34;7.27;;;5.90;;
12052;SDS011;6087;48.982;12.064;2023-04-20T10:34:02;7.87;;;6.53;;
12052;SDS011;6087;48.982;12.064;2023-04-20T10:36:30;7.53;;;6.73;;
12052;SDS011;6087;48.982;12.064;2023-04-20T10:38:58;10.40;;;6.77;;
12052;SDS011;6087;48.982;12.064;2023-04-20T10:41:29;7.83;;;6.10;;
12052;SDS011;6087;48.982;12.064;2023-04-20T10:44:06;8.67;;;6.70;;
12052;SDS011;6087;48.982;12.064;2023-04-20T10:46:34;7.87;;;6.60;;
12052;SDS011;6087;48.982;12.064;2023-04-20T10:49:03;8.73;;;5.87;;
12052;SDS011;6087;48.982;12.064;2023-04-20T10:51:30;6.97;;;6.27;;
12052;SDS011;6087;48.982;12.064;2023-04-20T10:54:01;7.90;;;6.33;;
12052;SDS011;6087;48.982;12.064;2023-04-20T10:56:36;7.07;;;5.13;;
12052;SDS011;6087;48.982;12.064;2023-04-20T10:59:05;6.63;;;5.37;;
12052;SDS011;6087;48.982;12.064;2023-04-20T11:01:33;8.17;;;5.87;;
12052;SDS011;6087;48.982;12.064;2023-04-20T11:04:00;6.03;;;5.07;;
12052;SDS011;6087;48.982;12.064;2023-04-20T11:06:28;5.73;;;5.10;;
12052;SDS011;6087;48.982;12.064;2023-04-20T11:08:55;7.57;;;5.43;;
12052;SDS011;6087;48.982;12.064;2023-04-20T11:11:23;6.07;;;5.17;;
12052;SDS011;6087;48.982;12.064;2023-04-20T11:13:51;5.37;;;4.53;;
12052;SDS011;6087;48.982;12.064;2023-04-20T11:16:31;5.07;;;4.57;;
12052;SDS011;6087;48.982;12.064;2023-04-20T11:19:01;5.87;;;4.93;;
12052;SDS011;6087;48.982;12.064;2023-04-20T11:21:34;7.07;;;4.87;;
12052;SDS011;6087;48.982;12.064;2023-04-20T11:24:03;5.77;;;4.63;;
12052;SDS011;6087;48.982;12.064;2023-04-20T11:26:35;4.77;;;4.33;;
12052;SDS011;6087;48.982;12.064;2023-04-20T11:29:04;6.27;;;4.50;;
12052;SDS011;6087;48.982;12.064;2023-04-20T11:31:32;5.80;;;4.93;;
12052;SDS011;6087;48.982;12.064;2023-04-20T11:34:00;4.93;;;4.53;;
12052;SDS011;6087;48.982;12.064;2023-04-20T11:36:28;4.53;;;3.93;;
12052;SDS011;6087;48.982;12.064;2023-04-20T11:38:55;5.07;;;4.57;;
12052;SDS011;6087;48.982;12.064;2023-04-20T11:41:36;6.20;;;4.33;;
12052;SDS011;6087;48.982;12.064;2023-04-20T11:44:10;5.43;;;4.60;;
12052;SDS011;6087;48.982;12.064;2023-04-20T11:46:40;4.40;;;4.00;;
12052;SDS011;6087;48.982;12.064;2023-04-20T11:49:08;4.80;;;4.30;;
12052;SDS011;6087;48.982;12.064;2023-04-20T11:51:35;6.25;;;4.63;;
12052;SDS011;6087;48.982;12.064;2023-04-20T11:54:02;5.30;;;4.68;;
12052;SDS011;6087;48.982;12.064;2023-04-20T11:56:29;6.85;;;5.05;;
12052;SDS011;6087;48.982;12.064;2023-04-20T11:58:56;3.80;;;3.50;;
12052;SDS011;6087;48.982;12.064;2023-04-20T12:01:23;4.57;;;4.18;;
12052;SDS011;6087;48.982;12.064;2023-04-20T12:03:52;4.72;;;4.32;;
12052;SDS011;6087;48.982;12.064;2023-04-20T12:06:20;5.05;;;4.57;;
12052;SDS011;6087;48.982;12.064;2023-04-20T12:08:47;4.30;;;3.90;;
12052;SDS011;6087;48.982;12.064;2023-04-20T12:11:14;4.70;;;4.05;;
12052;SDS011;6087;48.982;12.064;2023-04-20T12:13:41;4.90;;;4.45;;
12052;SDS011;6087;48.982;12.064;2023-04-20T12:16:08;4.10;;;3.60;;
12052;SDS011;6087;48.982;12.064;2023-04-20T12:18:35;5.97;;;3.67;;
12052;SDS011;6087;48.982;12.064;2023-04-20T12:21:04;4.40;;;3.90;;
12052;SDS011;6087;48.982;12.064;2023-04-20T12:23:31;4.80;;;3.78;;
12052;SDS011;6087;48.982;12.064;2023-04-20T12:26:00;4.10;;;3.80;;
12052;SDS011;6087;48.982;12.064;2023-04-20T12:28:27;3.85;;;3.55;;
12052;SDS011;6087;48.982;12.064;2023-04-20T12:30:54;5.07;;;4.22;;
12052;SDS011;6087;48.982;12.064;2023-04-20T12:33:21;3.35;;;3.05;;
12052;SDS011;6087;48.982;12.064;2023-04-20T12:35:48;3.83;;;3.47;;
12052;SDS011;6087;48.982;12.064;2023-04-20T12:38:17;4.60;;;4.20;;
12052;SDS011;6087;48.982;12.064;2023-04-20T12:40:43;5.15;;;4.18;;
12052;SDS011;6087;48.982;12.064;2023-04-20T12:43:10;4.00;;;3.60;;
12052;SDS011;6087;48.982;12.064;2023-04-20T12:45:37;5.25;;;4.75;;
12052;SDS011;6087;48.982;12.064;2023-04-20T12:48:04;4.32;;;3.92;;
12052;SDS011;6087;48.982;12.064;2023-04-20T12:50:31;4.30;;;3.67;;
12052;SDS011;6087;48.982;12.064;2023-04-20T12:52:58;4.93;;;3.75;;
12052;SDS011;6087;48.982;12.064;2023-04-20T12:55:27;4.75;;;4.35;;
12052;SDS011;6087;48.982;12.064;2023-04-20T12:57:54;4.50;;;4.10;;
12052;SDS011;6087;48.982;12.064;2023-04-20T13:00:21;4.10;;;3.45;;
12052;SDS011;6087;48.982;12.064;2023-04-20T13:02:48;5.60;;;4.88;;
12052;SDS011;6087;48.982;12.064;2023-04-20T13:05:15;4.13;;;3.72;;
12052;SDS011;6087;48.982;12.064;2023-04-20T13:07:43;3.70;;;3.35;;
12052;SDS011;6087;48.982;12.064;2023-04-20T13:10:10;4.22;;;3.83;;
12052;SDS011;6087;48.982;12.064;2023-04-20T13:12:38;4.15;;;3.85;;
12052;SDS011;6087;48.982;12.064;2023-04-20T13:15:06;4.10;;;3.70;;
12052;SDS011;6087;48.982;12.064;2023-04-20T13:17:34;3.88;;;3.50;;
12052;SDS011;6087;48.982;12.064;2023-04-20T13:20:01;4.18;;;3.78;;
12052;SDS011;6087;48.982;12.064;2023-04-20T13:22:30;4.22;;;3.83;;
12052;SDS011;6087;48.982;12.064;2023-04-20T13:24:57;4.20;;;3.80;;
12052;SDS011;6087;48.982;12.064;2023-04-20T13:27:24;3.55;;;3.15;;
12052;SDS011;6087;48.982;12.064;2023-04-20T13:29:52;3.83;;;3.47;;
12052;SDS011;6087;48.982;12.064;2023-04-20T13:32:19;4.22;;;3.83;;
12052;SDS011;6087;48.982;12.064;2023-04-20T13:34:46;3.58;;;3.22;;
12052;SDS011;6087;48.982;12.064;2023-04-20T13:37:13;4.15;;;3.55;;
12052;SDS011;6087;48.982;12.064;2023-04-20T13:39:39;5.50;;;3.60;;
12052;SDS011;6087;48.982;12.064;2023-04-20T13:42:07;4.60;;;3.75;;
12052;SDS011;6087;48.982;12.064;2023-04-20T13:44:36;5.30;;;3.67;;
12052;SDS011;6087;48.982;12.064;2023-04-20T13:47:04;4.28;;;3.88;;
12052;SDS011;6087;48.982;12.064;2023-04-20T13:49:31;4.10;;;3.70;;
12052;SDS011;6087;48.982;12.064;2023-04-20T13:51:58;4.00;;;3.70;;
12052;SDS011;6087;48.982;12.064;2023-04-20T13:54:25;4.30;;;3.90;;
12052;SDS011;6087;48.982;12.064;2023-04-20T13:56:52;3.90;;;3.55;;
12052;SDS011;6087;48.982;12.064;2023-04-20T13:59:19;4.40;;;4.00;;
12052;SDS011;6087;48.982;12.064;2023-04-20T14:01:45;4.40;;;4.00;;
12052;SDS011;6087;48.982;12.064;2023-04-20T14:04:14;4.53;;;4.05;;
12052;SDS011;6087;48.982;12.064;2023-04-20T14:06:41;4.65;;;4.00;;
12052;SDS011;6087;48.982;12.064;2023-04-20T14:09:08;5.00;;;4.38;;
12052;SDS011;6087;48.982;12.064;2023-04-20T14:11:35;4.22;;;3.83;;
12052;SDS011;6087;48.982;12.064;2023-04-20T14:14:02;4.65;;;4.25;;
12052;SDS011;6087;48.982;12.064;2023-04-20T14:16:29;4.70;;;4.25;;
12052;SDS011;6087;48.982;12.064;2023-04-20T14:18:56;4.93;;;4.43;;
12052;SDS011;6087;48.982;12.064;2023-04-20T14:21:28;6.30;;;4.50;;
12052;SDS011;6087;48.982;12.064;2023-04-20T14:23:56;6.55;;;4.72;;
12052;SDS011;6087;48.982;12.064;2023-04-20T14:26:23;5.10;;;4.55;;
12052;SDS011;6087;48.982;12.064;2023-04-20T14:28:53;5.88;;;4.93;;
12052;SDS011;6087;48.982;12.064;2023-04-20T14:31:20;10.98;;;5.20;;
12052;SDS011;6087;48.982;12.064;2023-04-20T14:33:47;6.95;;;5.53;;
12052;SDS011;6087;48.982;12.064;2023-04-20T14:36:14;5.75;;;4.97;;
12052;SDS011;6087;48.982;12.064;2023-04-20T14:38:43;7.18;;;5.63;;
12052;SDS011;6087;48.982;12.064;2023-04-20T14:41:10;5.68;;;4.88;;
12052;SDS011;6087;48.982;12.064;2023-04-20T14:43:36;7.28;;;5.35;;
12052;SDS011;6087;48.982;12.064;2023-04-20T14:46:03;8.73;;;6.07;;
12052;SDS011;6087;48.982;12.064;2023-04-20T14:48:33;7.82;;;6.22;;
12052;SDS011;6087;48.982;12.064;2023-04-20T14:51:02;8.63;;;5.70;;
12052;SDS011;6087;48.982;12.064;2023-04-20T14:53:29;8.48;;;6.70;;